NY12 weather

Auburn Community Hospital Heliport
Auburn, New York, United States

Public forecast

Using degrees Fahrenheit for public forecast. Weather courtesy of forecast.io.

Closest aviation weather report (METAR) to Auburn Community Hospital Heliport

Closest report is Syracuse Hancock International Airport, 22.6 nm (41.8 km) ENE. Retrieved 2019/10/16 23:25 UTC (33 minutes ago):

KSYR 162325Z 27012KT 5SM RA BR FEW007 BKN031 OVC040 10/08 A2951 RMK AO2 P0010 T01000083

Closest aviation forecast (TAF) to Auburn Community Hospital Heliport

Closest forecast is Syracuse Hancock International Airport, 22.6 nm (41.8 km) ENE. Retrieved 2019/10/16 18:36 UTC (5 hours ago):

TAF KSYR 161735Z 1618/1718 13015G25KT 6SM -SHRA SCT025 BKN100 FM162000 15010KT 3SM RA OVC035 FM162200 18008KT 2SM +RA OVC008 FM170000 27007KT 3SM RA OVC019 FM171300 30014G21KT 4SM -SHRA OVC012